createdAt,value
2023-02-03T00:02:04.803Z,2.448425
2023-02-03T00:05:30.033Z,2.518921
2023-02-03T00:08:55.268Z,2.428284
2023-02-03T00:12:20.553Z,2.488708
2023-02-03T00:15:45.744Z,2.458496
2023-02-03T00:19:11.573Z,2.609558
2023-02-03T00:22:36.822Z,2.609558
2023-02-03T00:26:02.078Z,2.569275
2023-02-03T00:29:27.391Z,2.589417
2023-02-03T00:32:52.596Z,2.528992
2023-02-03T00:36:17.843Z,2.448425
2023-02-03T00:39:43.080Z,2.448425
2023-02-03T00:43:08.348Z,2.518921
2023-02-03T00:46:33.589Z,2.599487
2023-02-03T00:49:58.817Z,2.488708
2023-02-03T00:53:24.062Z,2.458496
2023-02-03T00:56:49.319Z,2.569275
2023-02-03T01:00:14.563Z,2.6297
2023-02-03T01:03:39.835Z,2.6297
2023-02-03T01:07:05.045Z,2.690125
2023-02-03T01:10:30.285Z,2.790833
2023-02-03T01:13:55.519Z,2.821045
2023-02-03T01:17:20.761Z,2.871399
2023-02-03T01:20:46.098Z,2.841187
2023-02-03T01:24:11.334Z,2.810974
2023-02-03T01:27:36.633Z,2.841187
2023-02-03T01:31:01.903Z,2.901611
2023-02-03T01:34:27.042Z,2.931824
2023-02-03T01:37:52.305Z,2.901611
2023-02-03T01:41:17.521Z,2.972107
2023-02-03T01:44:42.761Z,2.841187
2023-02-03T01:48:08.012Z,2.740479
2023-02-03T01:51:33.252Z,2.790833
2023-02-03T01:54:58.523Z,2.851257
2023-02-03T01:58:23.761Z,2.851257
2023-02-03T02:01:50.017Z,2.790833
2023-02-03T02:05:15.238Z,2.851257
2023-02-03T02:08:40.477Z,2.891541
2023-02-03T02:12:05.751Z,2.901611
2023-02-03T02:15:31.032Z,2.962036
2023-02-03T02:18:56.240Z,2.871399
2023-02-03T02:22:21.503Z,2.921753
2023-02-03T02:25:46.744Z,2.901611
2023-02-03T02:29:12.094Z,2.891541
2023-02-03T02:32:37.247Z,2.871399
2023-02-03T02:36:02.525Z,2.931824
2023-02-03T02:39:27.779Z,2.951965
2023-02-03T02:42:53.028Z,2.972107
2023-02-03T02:46:18.337Z,3.022461
2023-02-03T02:49:43.543Z,3.082886
2023-02-03T02:53:08.792Z,3.082886
2023-02-03T02:56:34.037Z,3.082886
2023-02-03T02:59:59.329Z,3.173523
2023-02-03T03:03:24.606Z,3.153381
2023-02-03T03:06:49.827Z,3.113098
2023-02-03T03:10:15.081Z,3.153381
2023-02-03T03:13:40.343Z,3.203735
2023-02-03T03:17:05.614Z,3.284302
2023-02-03T03:20:30.896Z,3.334656
2023-02-03T03:23:56.103Z,3.334656
2023-02-03T03:27:21.339Z,3.314514
2023-02-03T03:30:46.646Z,3.314514
2023-02-03T03:34:11.827Z,3.364868
2023-02-03T03:37:37.100Z,3.314514
2023-02-03T03:41:02.302Z,3.334656
2023-02-03T03:44:27.556Z,3.415222
2023-02-03T03:47:52.798Z,3.415222
2023-02-03T03:51:18.036Z,3.395081
2023-02-03T03:54:43.278Z,3.415222
2023-02-03T03:58:08.491Z,3.465576
2023-02-03T04:01:33.821Z,3.51593
2023-02-03T04:04:58.994Z,3.546143
2023-02-03T04:08:24.263Z,3.546143
2023-02-03T04:11:49.504Z,3.505859
2023-02-03T04:15:14.749Z,3.536072
2023-02-03T04:18:39.999Z,3.566284
2023-02-03T04:22:05.275Z,3.576355
2023-02-03T04:25:30.501Z,3.566284
2023-02-03T04:28:55.873Z,3.546143
2023-02-03T04:32:22.548Z,3.51593
2023-02-03T04:35:47.804Z,3.51593
2023-02-03T04:39:13.086Z,3.505859
2023-02-03T04:42:38.319Z,3.546143
2023-02-03T04:46:03.653Z,3.566284
2023-02-03T04:49:28.806Z,3.546143
2023-02-03T04:52:54.023Z,3.646851
2023-02-03T04:56:19.258Z,3.687134
2023-02-03T04:59:44.501Z,3.646851
2023-02-03T05:03:09.754Z,3.656921
2023-02-03T05:06:34.974Z,3.687134
2023-02-03T05:10:00.289Z,3.727417
2023-02-03T05:13:25.583Z,3.757629
2023-02-03T05:16:51.001Z,3.697205
2023-02-03T05:20:16.173Z,3.747559
2023-02-03T05:23:41.363Z,3.677063
2023-02-03T05:27:06.573Z,3.777771
2023-02-03T05:30:31.909Z,3.757629
2023-02-03T05:33:57.102Z,3.757629
2023-02-03T05:37:22.315Z,3.777771
2023-02-03T05:40:47.521Z,3.787842
2023-02-03T05:44:12.730Z,3.757629
2023-02-03T05:47:37.915Z,3.838196
2023-02-03T05:51:03.092Z,3.858337
2023-02-03T05:54:28.304Z,3.908691
2023-02-03T05:57:53.442Z,3.938904
2023-02-03T06:01:18.628Z,3.878479
2023-02-03T06:04:43.852Z,3.898621
2023-02-03T06:08:08.970Z,3.868408
2023-02-03T06:11:34.216Z,3.878479
2023-02-03T06:14:59.370Z,3.898621
2023-02-03T06:18:24.550Z,3.828125
2023-02-03T06:21:49.726Z,4.01947
2023-02-03T06:25:14.878Z,4.422302
2023-02-03T06:28:40.085Z,4.593506
2023-02-03T06:32:05.326Z,4.603577
2023-02-03T06:35:30.434Z,4.553223
2023-02-03T06:38:55.607Z,4.402161
2023-02-03T06:42:20.760Z,4.291382
2023-02-03T06:45:45.991Z,4.180603
2023-02-03T06:49:11.151Z,4.160461
2023-02-03T06:52:36.329Z,4.039612
2023-02-03T06:56:01.483Z,3.999329
2023-02-03T06:59:26.700Z,3.999329
2023-02-03T07:02:51.942Z,4.049683
2023-02-03T07:06:17.064Z,4.110107
2023-02-03T07:09:42.246Z,4.110107
2023-02-03T07:13:07.441Z,4.120178
2023-02-03T07:16:32.598Z,4.14032
2023-02-03T07:19:57.797Z,4.039612
2023-02-03T07:23:22.933Z,4.110107
2023-02-03T07:26:48.118Z,4.160461
2023-02-03T07:30:13.315Z,4.230957
2023-02-03T07:33:38.501Z,4.180603
2023-02-03T07:37:03.708Z,4.110107
2023-02-03T07:40:29.145Z,4.150391
2023-02-03T07:43:54.006Z,4.220886
2023-02-03T07:47:19.181Z,4.241028
2023-02-03T07:50:44.353Z,4.331665
2023-02-03T07:54:09.546Z,4.321594
2023-02-03T07:57:34.670Z,4.331665
2023-02-03T08:00:59.833Z,4.412231
2023-02-03T08:04:24.990Z,4.361877
2023-02-03T08:07:50.149Z,4.341736
2023-02-03T08:11:15.340Z,4.341736
2023-02-03T08:14:40.467Z,4.422302
2023-02-03T08:18:05.664Z,4.402161
2023-02-03T08:21:30.816Z,4.442444
2023-02-03T08:24:56.046Z,4.482727
2023-02-03T08:28:21.336Z,4.553223
2023-02-03T08:31:46.582Z,4.502869
2023-02-03T08:35:11.633Z,4.502869
2023-02-03T08:38:36.847Z,4.593506
2023-02-03T08:42:02.075Z,4.452515
2023-02-03T08:45:27.398Z,4.371948
2023-02-03T08:48:52.524Z,4.402161
2023-02-03T08:52:19.082Z,4.361877
2023-02-03T08:55:42.913Z,4.412231
2023-02-03T08:59:08.082Z,4.442444
2023-02-03T09:02:33.310Z,4.482727
2023-02-03T09:05:58.504Z,4.553223
2023-02-03T09:09:23.723Z,4.512939
2023-02-03T09:12:48.898Z,4.512939
2023-02-03T09:16:14.184Z,4.422302
2023-02-03T09:19:39.494Z,4.371948
2023-02-03T09:23:04.484Z,4.472656
2023-02-03T09:26:29.667Z,4.593506
2023-02-03T09:29:54.885Z,4.52301
2023-02-03T09:33:20.082Z,4.472656
2023-02-03T09:36:45.309Z,4.442444
2023-02-03T09:40:10.456Z,4.502869
2023-02-03T09:43:35.705Z,4.402161
2023-02-03T09:47:00.938Z,4.402161
2023-02-03T09:50:26.480Z,4.412231
2023-02-03T09:53:51.342Z,4.371948
2023-02-03T09:57:16.507Z,4.482727
2023-02-03T10:00:41.752Z,4.583435
2023-02-03T10:04:06.948Z,4.633789
2023-02-03T10:07:32.178Z,4.553223
2023-02-03T10:10:57.421Z,4.623718
2023-02-03T10:14:22.576Z,4.583435
2023-02-03T10:17:47.834Z,4.52301
2023-02-03T10:21:13.039Z,4.623718
2023-02-03T10:24:38.266Z,4.664001
2023-02-03T10:28:03.724Z,4.674072
2023-02-03T10:31:28.814Z,4.583435
2023-02-03T10:34:53.908Z,4.653931
2023-02-03T10:38:19.133Z,4.734497
2023-02-03T10:41:44.339Z,4.754639
2023-02-03T10:45:09.574Z,4.754639
2023-02-03T10:48:34.746Z,4.724426
2023-02-03T10:52:00.988Z,4.815063
2023-02-03T10:55:26.161Z,4.845276
2023-02-03T10:58:51.414Z,4.704285
2023-02-03T11:02:16.680Z,4.734497
2023-02-03T11:05:43.405Z,4.674072
2023-02-03T11:09:06.969Z,4.653931
2023-02-03T11:12:32.161Z,4.623718
2023-02-03T11:15:57.420Z,4.694214
2023-02-03T11:19:22.584Z,4.694214
2023-02-03T11:22:47.723Z,4.754639
2023-02-03T11:26:12.915Z,4.835205
2023-02-03T11:29:38.164Z,4.804993
2023-02-03T11:33:03.339Z,4.754639
2023-02-03T11:36:28.549Z,4.835205
2023-02-03T11:39:53.705Z,4.885559
2023-02-03T11:43:19.027Z,4.905701
2023-02-03T11:46:44.290Z,4.835205
2023-02-03T11:50:09.390Z,4.956055
2023-02-03T11:53:37.751Z,4.966125
2023-02-03T11:56:59.785Z,4.905701
2023-02-03T12:00:25.005Z,5.016479
2023-02-03T12:03:50.173Z,5.1474
2023-02-03T12:07:15.387Z,5.248108
2023-02-03T12:10:40.592Z,5.328674
2023-02-03T12:14:05.753Z,5.348816
2023-02-03T12:17:30.959Z,5.358887
2023-02-03T12:20:56.148Z,5.217896
2023-02-03T12:24:21.374Z,5.127258
2023-02-03T12:27:46.622Z,5.02655
2023-02-03T12:31:11.839Z,4.996338
2023-02-03T12:34:36.970Z,4.996338
2023-02-03T12:38:02.141Z,4.996338
2023-02-03T12:41:27.314Z,5.016479
2023-02-03T12:44:52.641Z,4.956055
2023-02-03T12:48:17.789Z,4.875488
2023-02-03T12:51:42.981Z,4.956055
2023-02-03T12:55:08.207Z,4.915771
2023-02-03T12:58:34.611Z,4.905701
2023-02-03T13:01:58.702Z,4.915771
2023-02-03T13:05:23.797Z,4.885559
2023-02-03T13:08:49.039Z,4.875488
2023-02-03T13:12:14.220Z,4.855347
2023-02-03T13:15:39.443Z,4.855347
2023-02-03T13:19:04.658Z,4.855347
2023-02-03T13:22:29.861Z,4.875488
2023-02-03T13:25:55.111Z,4.875488
2023-02-03T13:29:20.389Z,4.835205
2023-02-03T13:32:45.572Z,4.815063
2023-02-03T13:36:10.903Z,4.815063
2023-02-03T13:39:36.010Z,4.885559
2023-02-03T13:43:01.257Z,4.935913
2023-02-03T13:46:26.563Z,4.986267
2023-02-03T13:49:51.733Z,4.986267
2023-02-03T13:53:17.010Z,5.02655
2023-02-03T13:56:42.173Z,5.056763
2023-02-03T14:00:07.443Z,5.167542
2023-02-03T14:03:32.677Z,5.217896
2023-02-03T14:06:57.849Z,5.238037
2023-02-03T14:10:23.096Z,5.197754
2023-02-03T14:13:48.228Z,5.207825
2023-02-03T14:17:13.465Z,5.207825
2023-02-03T14:20:38.695Z,5.207825
2023-02-03T14:24:03.930Z,5.207825
2023-02-03T14:27:29.194Z,5.238037
2023-02-03T15:04:39.245Z,5.560303
2023-02-03T15:08:04.376Z,5.540161
2023-02-03T15:11:29.545Z,5.509949
2023-02-03T15:14:54.735Z,5.479736
2023-02-03T15:18:19.998Z,5.459595
2023-02-03T15:21:45.218Z,5.509949
2023-02-03T15:25:10.396Z,5.489807
2023-02-03T15:28:35.560Z,5.429382
2023-02-03T15:32:00.906Z,5.39917
2023-02-03T15:35:26.213Z,5.308533
2023-02-03T15:38:51.231Z,5.358887
2023-02-03T15:42:16.408Z,5.308533
2023-02-03T15:45:41.567Z,5.348816
2023-02-03T15:49:06.750Z,5.429382
2023-02-03T15:52:31.933Z,5.459595
2023-02-03T15:55:57.143Z,5.389099
2023-02-03T15:59:22.297Z,5.308533
2023-02-03T16:02:47.496Z,5.358887
2023-02-03T16:06:12.734Z,5.39917
2023-02-03T16:09:37.855Z,5.419312
2023-02-03T16:13:03.104Z,5.449524
2023-02-03T16:16:28.709Z,5.379028
2023-02-03T16:19:53.880Z,5.379028
2023-02-03T16:23:19.026Z,5.379028
2023-02-03T16:26:44.295Z,5.328674
2023-02-03T16:30:09.498Z,5.27832
2023-02-03T16:33:34.686Z,5.207825
2023-02-03T16:36:59.941Z,5.177612
2023-02-03T16:40:25.076Z,5.238037
2023-02-03T16:43:50.261Z,5.1474
2023-02-03T16:47:15.575Z,5.056763
2023-02-03T16:50:40.666Z,5.097046
2023-02-03T16:54:05.866Z,5.167542
2023-02-03T16:57:31.035Z,5.177612
2023-02-03T17:00:56.253Z,5.066833
2023-02-03T17:04:21.481Z,5.086975
2023-02-03T17:07:46.734Z,4.996338
2023-02-03T17:11:11.986Z,4.915771
2023-02-03T17:14:37.232Z,4.935913
2023-02-03T17:18:02.466Z,4.986267
2023-02-03T17:21:28.240Z,5.066833
2023-02-03T17:24:53.473Z,5.056763
2023-02-03T17:28:18.761Z,5.036621
2023-02-03T17:31:44.005Z,5.016479
2023-02-03T17:35:09.286Z,4.915771
2023-02-03T17:38:34.555Z,4.835205
2023-02-03T17:56:00.778Z,4.704285
2023-02-03T17:59:25.993Z,4.694214
2023-02-03T18:02:51.255Z,4.653931
2023-02-03T18:06:16.486Z,4.52301
2023-02-03T18:09:41.724Z,4.583435
2023-02-03T18:13:07.064Z,4.482727
2023-02-03T18:16:32.390Z,4.452515
2023-02-03T18:19:57.630Z,4.502869
2023-02-03T18:23:22.851Z,4.402161
2023-02-03T18:26:48.073Z,4.422302
2023-02-03T18:30:13.297Z,4.442444
2023-02-03T18:33:38.465Z,4.452515
2023-02-03T18:37:03.695Z,4.502869
2023-02-03T18:40:29.198Z,4.603577
2023-02-03T18:43:54.160Z,4.694214
2023-02-03T18:47:19.433Z,4.694214
2023-02-03T18:50:44.684Z,4.603577
2023-02-03T18:54:09.911Z,4.664001
2023-02-03T18:57:35.140Z,4.704285
2023-02-03T19:01:00.414Z,4.664001
2023-02-03T19:04:25.680Z,4.704285
2023-02-03T19:07:50.892Z,4.664001
2023-02-03T19:11:16.110Z,4.754639
2023-02-03T19:14:41.387Z,4.664001
2023-02-03T19:18:06.658Z,4.694214
2023-02-03T19:21:31.920Z,4.724426
2023-02-03T19:24:57.177Z,4.754639
2023-02-03T19:28:30.357Z,4.694214
2023-02-03T19:31:47.812Z,4.653931
2023-02-03T19:35:12.885Z,4.664001
2023-02-03T19:38:38.187Z,4.674072
2023-02-03T19:42:03.408Z,4.734497
2023-02-03T19:45:28.633Z,4.694214
2023-02-03T19:48:53.909Z,4.653931
2023-02-03T19:52:19.130Z,4.674072
2023-02-03T19:55:44.398Z,4.724426
2023-02-03T19:59:09.664Z,4.704285
2023-02-03T20:02:34.956Z,4.694214
2023-02-03T20:06:01.174Z,4.694214
2023-02-03T20:09:25.438Z,4.633789
2023-02-03T20:12:50.714Z,4.583435
2023-02-03T20:16:15.917Z,4.583435
2023-02-03T20:19:41.169Z,4.623718
2023-02-03T20:23:06.440Z,4.623718
2023-02-03T20:26:31.672Z,4.512939
2023-02-03T20:29:56.889Z,4.472656
2023-02-03T20:33:22.164Z,4.502869
2023-02-03T20:36:47.406Z,4.543152
2023-02-03T20:40:12.688Z,4.603577
2023-02-03T20:43:37.940Z,4.52301
2023-02-03T20:47:03.191Z,4.543152
2023-02-03T20:50:37.458Z,4.512939
2023-02-03T20:53:53.552Z,4.623718
2023-02-03T20:57:18.755Z,4.52301
2023-02-03T21:00:43.990Z,4.603577
2023-02-03T21:04:10.226Z,4.674072
2023-02-03T21:07:34.320Z,4.603577
2023-02-03T21:10:59.548Z,4.583435
2023-02-03T21:14:24.734Z,4.543152
2023-02-03T21:17:50.014Z,4.502869
2023-02-03T21:21:15.189Z,4.422302
2023-02-03T21:24:40.380Z,4.412231
2023-02-03T21:28:05.633Z,4.331665
2023-02-03T21:31:30.908Z,4.27124
2023-02-03T21:34:56.015Z,4.321594
2023-02-03T21:38:21.185Z,4.402161
2023-02-03T21:41:46.352Z,4.402161
2023-02-03T21:45:11.559Z,4.341736
2023-02-03T21:48:36.773Z,4.402161
2023-02-03T21:52:01.995Z,4.371948
2023-02-03T21:55:27.184Z,4.371948
2023-02-03T21:58:52.349Z,4.361877
2023-02-03T22:02:17.544Z,4.422302
2023-02-03T22:05:42.767Z,4.442444
2023-02-03T22:09:08.008Z,4.422302
2023-02-03T22:12:33.241Z,4.361877
2023-02-03T22:15:58.450Z,4.402161
2023-02-03T22:19:23.660Z,4.452515
2023-02-03T22:22:48.888Z,4.422302
2023-02-03T22:26:14.103Z,4.331665
2023-02-03T22:29:39.297Z,4.402161
2023-02-03T22:33:04.427Z,4.442444
2023-02-03T22:36:29.622Z,4.371948
2023-02-03T22:39:54.809Z,4.361877
2023-02-03T22:43:19.977Z,4.361877
2023-02-03T22:46:45.209Z,4.321594
2023-02-03T22:50:10.362Z,4.331665
2023-02-03T22:53:35.543Z,4.371948
2023-02-03T22:57:00.762Z,4.371948
2023-02-03T23:00:26.022Z,4.230957
2023-02-03T23:03:51.228Z,4.150391
2023-02-03T23:07:16.422Z,4.089966
2023-02-03T23:10:41.580Z,4.01947
2023-02-03T23:14:06.773Z,3.979187
2023-02-03T23:17:31.975Z,4.049683
2023-02-03T23:20:57.182Z,3.999329
2023-02-03T23:24:22.412Z,4.049683
2023-02-03T23:27:47.599Z,4.059753
2023-02-03T23:31:12.891Z,3.979187
2023-02-03T23:34:37.978Z,3.999329
2023-02-03T23:38:03.195Z,3.999329
2023-02-03T23:41:28.347Z,3.969116
2023-02-03T23:44:53.533Z,3.979187
2023-02-03T23:48:18.717Z,3.928833
2023-02-03T23:51:43.884Z,3.928833
2023-02-03T23:55:09.103Z,3.908691
2023-02-03T23:58:34.285Z,3.838196
